sensor_id;sensor_type;location;lat;lon;timestamp;P1;durP1;ratioP1;P2;durP2;ratioP2
26375;SDS011;30544;42.196;24.336;2023-03-20T00:00:26;28.02;;;16.60;;
26375;SDS011;30544;42.196;24.336;2023-03-20T00:02:57;33.70;;;20.83;;
26375;SDS011;30544;42.196;24.336;2023-03-20T00:05:25;31.48;;;17.10;;
26375;SDS011;30544;42.196;24.336;2023-03-20T00:07:54;25.95;;;14.57;;
26375;SDS011;30544;42.196;24.336;2023-03-20T00:10:21;28.48;;;13.32;;
26375;SDS011;30544;42.196;24.336;2023-03-20T00:12:51;22.13;;;11.32;;
26375;SDS011;30544;42.196;24.336;2023-03-20T00:15:28;17.63;;;10.70;;
26375;SDS011;30544;42.196;24.336;2023-03-20T00:17:58;16.48;;;9.30;;
26375;SDS011;30544;42.196;24.336;2023-03-20T00:20:25;12.35;;;8.18;;
26375;SDS011;30544;42.196;24.336;2023-03-20T00:22:53;12.75;;;8.02;;
26375;SDS011;30544;42.196;24.336;2023-03-20T00:25:21;12.98;;;8.13;;
26375;SDS011;30544;42.196;24.336;2023-03-20T00:27:50;15.15;;;8.77;;
26375;SDS011;30544;42.196;24.336;2023-03-20T00:30:21;14.55;;;9.25;;
26375;SDS011;30544;42.196;24.336;2023-03-20T00:32:50;14.48;;;10.02;;
26375;SDS011;30544;42.196;24.336;2023-03-20T00:35:20;16.60;;;8.93;;
26375;SDS011;30544;42.196;24.336;2023-03-20T00:37:50;14.45;;;8.45;;
26375;SDS011;30544;42.196;24.336;2023-03-20T00:40:17;13.52;;;8.07;;
26375;SDS011;30544;42.196;24.336;2023-03-20T00:42:45;16.10;;;8.77;;
26375;SDS011;30544;42.196;24.336;2023-03-20T00:45:15;13.93;;;9.00;;
26375;SDS011;30544;42.196;24.336;2023-03-20T00:47:44;15.38;;;10.25;;
26375;SDS011;30544;42.196;24.336;2023-03-20T00:50:15;12.60;;;9.02;;
26375;SDS011;30544;42.196;24.336;2023-03-20T00:52:46;13.63;;;8.40;;
26375;SDS011;30544;42.196;24.336;2023-03-20T00:55:13;15.48;;;8.52;;
26375;SDS011;30544;42.196;24.336;2023-03-20T00:57:43;12.43;;;7.97;;
26375;SDS011;30544;42.196;24.336;2023-03-20T01:00:23;14.50;;;8.73;;
26375;SDS011;30544;42.196;24.336;2023-03-20T01:02:53;15.60;;;8.52;;
26375;SDS011;30544;42.196;24.336;2023-03-20T01:05:22;22.17;;;8.60;;
26375;SDS011;30544;42.196;24.336;2023-03-20T01:07:51;14.57;;;8.93;;
26375;SDS011;30544;42.196;24.336;2023-03-20T01:10:18;14.75;;;8.90;;
26375;SDS011;30544;42.196;24.336;2023-03-20T01:12:45;14.73;;;8.98;;
26375;SDS011;30544;42.196;24.336;2023-03-20T01:15:19;18.20;;;11.48;;
26375;SDS011;30544;42.196;24.336;2023-03-20T01:17:48;12.00;;;8.30;;
26375;SDS011;30544;42.196;24.336;2023-03-20T01:20:19;12.52;;;8.57;;
26375;SDS011;30544;42.196;24.336;2023-03-20T01:22:48;12.77;;;8.43;;
26375;SDS011;30544;42.196;24.336;2023-03-20T01:25:16;14.57;;;9.23;;
26375;SDS011;30544;42.196;24.336;2023-03-20T01:27:44;19.85;;;10.13;;
26375;SDS011;30544;42.196;24.336;2023-03-20T01:30:16;15.50;;;10.30;;
26375;SDS011;30544;42.196;24.336;2023-03-20T01:32:45;14.13;;;9.63;;
26375;SDS011;30544;42.196;24.336;2023-03-20T01:35:13;22.27;;;9.77;;
26375;SDS011;30544;42.196;24.336;2023-03-20T01:37:41;13.90;;;8.80;;
26375;SDS011;30544;42.196;24.336;2023-03-20T01:40:11;15.00;;;9.20;;
26375;SDS011;30544;42.196;24.336;2023-03-20T01:42:51;17.60;;;9.82;;
26375;SDS011;30544;42.196;24.336;2023-03-20T01:45:20;15.70;;;11.13;;
26375;SDS011;30544;42.196;24.336;2023-03-20T01:47:49;17.45;;;10.95;;
26375;SDS011;30544;42.196;24.336;2023-03-20T01:50:24;21.67;;;11.57;;
26375;SDS011;30544;42.196;24.336;2023-03-20T01:52:57;16.90;;;11.57;;
26375;SDS011;30544;42.196;24.336;2023-03-20T01:55:30;21.30;;;11.70;;
26375;SDS011;30544;42.196;24.336;2023-03-20T01:57:59;17.73;;;11.55;;
26375;SDS011;30544;42.196;24.336;2023-03-20T02:00:28;15.80;;;11.02;;
26375;SDS011;30544;42.196;24.336;2023-03-20T02:02:56;18.75;;;11.43;;
26375;SDS011;30544;42.196;24.336;2023-03-20T02:05:23;17.25;;;11.02;;
26375;SDS011;30544;42.196;24.336;2023-03-20T02:07:57;17.17;;;11.07;;
26375;SDS011;30544;42.196;24.336;2023-03-20T02:10:32;19.88;;;12.65;;
26375;SDS011;30544;42.196;24.336;2023-03-20T02:12:59;16.42;;;12.30;;
26375;SDS011;30544;42.196;24.336;2023-03-20T02:15:28;20.13;;;12.75;;
26375;SDS011;30544;42.196;24.336;2023-03-20T02:18:01;18.27;;;12.20;;
26375;SDS011;30544;42.196;24.336;2023-03-20T02:20:39;22.20;;;11.60;;
26375;SDS011;30544;42.196;24.336;2023-03-20T02:23:30;21.67;;;11.90;;
26375;SDS011;30544;42.196;24.336;2023-03-20T02:29:20;23.13;;;12.88;;
26375;SDS011;30544;42.196;24.336;2023-03-20T02:35:16;17.25;;;11.40;;
26375;SDS011;30544;42.196;24.336;2023-03-20T02:38:12;16.80;;;10.32;;
26375;SDS011;30544;42.196;24.336;2023-03-20T02:40:50;17.77;;;10.35;;
26375;SDS011;30544;42.196;24.336;2023-03-20T02:43:25;17.50;;;11.18;;
26375;SDS011;30544;42.196;24.336;2023-03-20T02:46:03;16.08;;;10.73;;
26375;SDS011;30544;42.196;24.336;2023-03-20T02:48:38;20.95;;;11.20;;
26375;SDS011;30544;42.196;24.336;2023-03-20T02:51:13;19.42;;;10.95;;
26375;SDS011;30544;42.196;24.336;2023-03-20T02:53:48;16.42;;;10.35;;
26375;SDS011;30544;42.196;24.336;2023-03-20T02:56:21;18.92;;;13.60;;
26375;SDS011;30544;42.196;24.336;2023-03-20T02:58:56;16.10;;;10.55;;
26375;SDS011;30544;42.196;24.336;2023-03-20T03:01:34;12.93;;;8.95;;
26375;SDS011;30544;42.196;24.336;2023-03-20T03:04:07;16.10;;;9.30;;
26375;SDS011;30544;42.196;24.336;2023-03-20T03:06:37;16.50;;;9.30;;
26375;SDS011;30544;42.196;24.336;2023-03-20T03:09:10;17.83;;;12.75;;
26375;SDS011;30544;42.196;24.336;2023-03-20T03:11:40;14.30;;;9.25;;
26375;SDS011;30544;42.196;24.336;2023-03-20T03:14:13;17.27;;;10.63;;
26375;SDS011;30544;42.196;24.336;2023-03-20T03:16:45;16.17;;;9.80;;
26375;SDS011;30544;42.196;24.336;2023-03-20T03:19:15;18.73;;;10.50;;
26375;SDS011;30544;42.196;24.336;2023-03-20T03:21:46;18.05;;;12.30;;
26375;SDS011;30544;42.196;24.336;2023-03-20T03:24:21;18.25;;;11.35;;
26375;SDS011;30544;42.196;24.336;2023-03-20T03:26:53;21.13;;;12.18;;
26375;SDS011;30544;42.196;24.336;2023-03-20T03:29:21;23.38;;;11.32;;
26375;SDS011;30544;42.196;24.336;2023-03-20T03:31:50;25.40;;;11.00;;
26375;SDS011;30544;42.196;24.336;2023-03-20T03:34:18;16.23;;;10.07;;
26375;SDS011;30544;42.196;24.336;2023-03-20T03:36:49;18.10;;;10.60;;
26375;SDS011;30544;42.196;24.336;2023-03-20T03:39:22;15.20;;;10.02;;
26375;SDS011;30544;42.196;24.336;2023-03-20T03:41:54;18.75;;;10.88;;
26375;SDS011;30544;42.196;24.336;2023-03-20T03:44:29;17.48;;;11.02;;
26375;SDS011;30544;42.196;24.336;2023-03-20T03:47:01;21.85;;;11.25;;
26375;SDS011;30544;42.196;24.336;2023-03-20T03:49:32;16.70;;;11.10;;
26375;SDS011;30544;42.196;24.336;2023-03-20T03:52:03;23.27;;;11.82;;
26375;SDS011;30544;42.196;24.336;2023-03-20T03:54:36;20.13;;;11.43;;
26375;SDS011;30544;42.196;24.336;2023-03-20T03:57:06;18.63;;;11.25;;
26375;SDS011;30544;42.196;24.336;2023-03-20T03:59:36;18.40;;;11.80;;
26375;SDS011;30544;42.196;24.336;2023-03-20T04:02:06;18.98;;;13.18;;
26375;SDS011;30544;42.196;24.336;2023-03-20T04:04:35;19.23;;;12.13;;
26375;SDS011;30544;42.196;24.336;2023-03-20T04:07:07;23.40;;;12.57;;
26375;SDS011;30544;42.196;24.336;2023-03-20T04:09:36;18.35;;;12.73;;
26375;SDS011;30544;42.196;24.336;2023-03-20T04:12:03;16.48;;;10.80;;
26375;SDS011;30544;42.196;24.336;2023-03-20T04:14:30;18.50;;;11.25;;
26375;SDS011;30544;42.196;24.336;2023-03-20T04:16:57;22.73;;;14.95;;
26375;SDS011;30544;42.196;24.336;2023-03-20T04:19:24;23.27;;;16.05;;
26375;SDS011;30544;42.196;24.336;2023-03-20T04:21:51;18.10;;;11.55;;
26375;SDS011;30544;42.196;24.336;2023-03-20T04:24:19;20.52;;;12.60;;
26375;SDS011;30544;42.196;24.336;2023-03-20T04:26:47;17.52;;;12.15;;
26375;SDS011;30544;42.196;24.336;2023-03-20T04:29:14;23.67;;;11.35;;
26375;SDS011;30544;42.196;24.336;2023-03-20T04:31:41;19.80;;;12.07;;
26375;SDS011;30544;42.196;24.336;2023-03-20T04:34:08;21.52;;;12.27;;
26375;SDS011;30544;42.196;24.336;2023-03-20T04:36:34;25.42;;;14.95;;
26375;SDS011;30544;42.196;24.336;2023-03-20T04:39:01;61.25;;;32.22;;
26375;SDS011;30544;42.196;24.336;2023-03-20T04:41:28;38.72;;;20.42;;
26375;SDS011;30544;42.196;24.336;2023-03-20T04:43:56;28.83;;;16.83;;
26375;SDS011;30544;42.196;24.336;2023-03-20T04:46:23;25.27;;;14.85;;
26375;SDS011;30544;42.196;24.336;2023-03-20T04:48:50;27.85;;;15.48;;
26375;SDS011;30544;42.196;24.336;2023-03-20T04:51:17;32.47;;;16.25;;
26375;SDS011;30544;42.196;24.336;2023-03-20T04:53:43;27.35;;;16.05;;
26375;SDS011;30544;42.196;24.336;2023-03-20T04:56:11;26.85;;;13.85;;
26375;SDS011;30544;42.196;24.336;2023-03-20T04:58:38;24.30;;;12.43;;
26375;SDS011;30544;42.196;24.336;2023-03-20T05:01:06;34.83;;;24.20;;
26375;SDS011;30544;42.196;24.336;2023-03-20T05:03:33;28.08;;;18.23;;
26375;SDS011;30544;42.196;24.336;2023-03-20T05:06:00;31.92;;;16.35;;
26375;SDS011;30544;42.196;24.336;2023-03-20T05:08:27;35.78;;;16.73;;
26375;SDS011;30544;42.196;24.336;2023-03-20T05:10:54;35.03;;;19.85;;
26375;SDS011;30544;42.196;24.336;2023-03-20T05:13:20;28.17;;;14.98;;
26375;SDS011;30544;42.196;24.336;2023-03-20T05:15:47;29.05;;;13.55;;
26375;SDS011;30544;42.196;24.336;2023-03-20T05:18:15;18.63;;;12.05;;
26375;SDS011;30544;42.196;24.336;2023-03-20T05:20:42;30.50;;;11.25;;
26375;SDS011;30544;42.196;24.336;2023-03-20T05:23:09;23.17;;;12.32;;
26375;SDS011;30544;42.196;24.336;2023-03-20T05:25:35;20.60;;;11.38;;
26375;SDS011;30544;42.196;24.336;2023-03-20T05:28:02;26.35;;;12.70;;
26375;SDS011;30544;42.196;24.336;2023-03-20T05:30:29;23.40;;;13.82;;
26375;SDS011;30544;42.196;24.336;2023-03-20T05:32:56;25.92;;;13.35;;
26375;SDS011;30544;42.196;24.336;2023-03-20T05:35:24;30.17;;;14.73;;
26375;SDS011;30544;42.196;24.336;2023-03-20T05:37:51;24.70;;;14.18;;
26375;SDS011;30544;42.196;24.336;2023-03-20T05:40:17;24.40;;;13.13;;
26375;SDS011;30544;42.196;24.336;2023-03-20T05:42:48;22.65;;;14.43;;
26375;SDS011;30544;42.196;24.336;2023-03-20T05:45:15;22.15;;;14.35;;
26375;SDS011;30544;42.196;24.336;2023-03-20T05:47:42;32.80;;;17.02;;
26375;SDS011;30544;42.196;24.336;2023-03-20T05:50:09;30.33;;;18.88;;
26375;SDS011;30544;42.196;24.336;2023-03-20T05:52:37;22.73;;;14.63;;
26375;SDS011;30544;42.196;24.336;2023-03-20T05:55:05;24.60;;;14.27;;
26375;SDS011;30544;42.196;24.336;2023-03-20T05:57:32;25.23;;;15.20;;
26375;SDS011;30544;42.196;24.336;2023-03-20T05:59:59;33.92;;;18.40;;
26375;SDS011;30544;42.196;24.336;2023-03-20T06:02:25;36.83;;;18.52;;
26375;SDS011;30544;42.196;24.336;2023-03-20T06:04:52;29.60;;;17.50;;
26375;SDS011;30544;42.196;24.336;2023-03-20T06:07:19;30.02;;;17.02;;
26375;SDS011;30544;42.196;24.336;2023-03-20T06:09:47;34.63;;;16.80;;
26375;SDS011;30544;42.196;24.336;2023-03-20T06:12:14;28.40;;;16.13;;
26375;SDS011;30544;42.196;24.336;2023-03-20T06:14:41;23.67;;;12.45;;
26375;SDS011;30544;42.196;24.336;2023-03-20T06:17:08;25.92;;;12.82;;
26375;SDS011;30544;42.196;24.336;2023-03-20T06:19:35;30.70;;;14.23;;
26375;SDS011;30544;42.196;24.336;2023-03-20T06:22:02;25.25;;;15.13;;
26375;SDS011;30544;42.196;24.336;2023-03-20T06:24:31;30.23;;;16.55;;
26375;SDS011;30544;42.196;24.336;2023-03-20T06:27:00;29.10;;;15.88;;
26375;SDS011;30544;42.196;24.336;2023-03-20T06:29:26;35.58;;;15.85;;
26375;SDS011;30544;42.196;24.336;2023-03-20T06:31:54;33.63;;;15.73;;
26375;SDS011;30544;42.196;24.336;2023-03-20T06:34:21;26.55;;;14.52;;
26375;SDS011;30544;42.196;24.336;2023-03-20T06:36:47;25.98;;;14.15;;
26375;SDS011;30544;42.196;24.336;2023-03-20T06:39:14;23.48;;;13.82;;
26375;SDS011;30544;42.196;24.336;2023-03-20T06:41:41;22.33;;;13.85;;
26375;SDS011;30544;42.196;24.336;2023-03-20T06:44:09;23.88;;;13.43;;
26375;SDS011;30544;42.196;24.336;2023-03-20T06:46:36;25.13;;;14.50;;
26375;SDS011;30544;42.196;24.336;2023-03-20T06:49:03;23.33;;;14.32;;
26375;SDS011;30544;42.196;24.336;2023-03-20T06:51:30;23.98;;;14.40;;
26375;SDS011;30544;42.196;24.336;2023-03-20T06:53:57;28.85;;;15.48;;
26375;SDS011;30544;42.196;24.336;2023-03-20T06:56:24;31.95;;;15.10;;
26375;SDS011;30544;42.196;24.336;2023-03-20T06:58:50;26.80;;;15.73;;
26375;SDS011;30544;42.196;24.336;2023-03-20T07:01:18;30.98;;;15.73;;
26375;SDS011;30544;42.196;24.336;2023-03-20T07:03:45;32.75;;;16.70;;
26375;SDS011;30544;42.196;24.336;2023-03-20T07:06:12;26.42;;;14.60;;
26375;SDS011;30544;42.196;24.336;2023-03-20T07:08:39;23.73;;;14.60;;
26375;SDS011;30544;42.196;24.336;2023-03-20T07:11:06;28.88;;;15.00;;
26375;SDS011;30544;42.196;24.336;2023-03-20T07:13:33;28.45;;;14.65;;
26375;SDS011;30544;42.196;24.336;2023-03-20T07:16:00;30.85;;;14.75;;
26375;SDS011;30544;42.196;24.336;2023-03-20T07:18:29;29.92;;;13.02;;
26375;SDS011;30544;42.196;24.336;2023-03-20T07:20:57;22.52;;;13.10;;
26375;SDS011;30544;42.196;24.336;2023-03-20T07:23:27;26.83;;;14.48;;
26375;SDS011;30544;42.196;24.336;2023-03-20T07:25:53;26.50;;;14.20;;
26375;SDS011;30544;42.196;24.336;2023-03-20T07:28:20;27.13;;;14.13;;
26375;SDS011;30544;42.196;24.336;2023-03-20T07:30:47;25.45;;;15.25;;
26375;SDS011;30544;42.196;24.336;2023-03-20T07:33:14;27.77;;;15.73;;
26375;SDS011;30544;42.196;24.336;2023-03-20T07:35:42;25.52;;;14.35;;
26375;SDS011;30544;42.196;24.336;2023-03-20T07:38:09;22.25;;;13.15;;
26375;SDS011;30544;42.196;24.336;2023-03-20T07:40:35;27.90;;;15.93;;
26375;SDS011;30544;42.196;24.336;2023-03-20T07:43:03;28.15;;;13.95;;
26375;SDS011;30544;42.196;24.336;2023-03-20T07:45:29;30.60;;;14.85;;
26375;SDS011;30544;42.196;24.336;2023-03-20T07:47:56;22.33;;;14.02;;
26375;SDS011;30544;42.196;24.336;2023-03-20T07:50:23;25.02;;;13.90;;
26375;SDS011;30544;42.196;24.336;2023-03-20T07:52:51;25.48;;;14.13;;
26375;SDS011;30544;42.196;24.336;2023-03-20T07:55:18;26.85;;;14.77;;
26375;SDS011;30544;42.196;24.336;2023-03-20T07:57:46;22.70;;;13.85;;
26375;SDS011;30544;42.196;24.336;2023-03-20T08:00:14;25.92;;;14.93;;
26375;SDS011;30544;42.196;24.336;2023-03-20T08:02:41;25.08;;;14.25;;
26375;SDS011;30544;42.196;24.336;2023-03-20T08:05:08;28.08;;;14.77;;
26375;SDS011;30544;42.196;24.336;2023-03-20T08:07:35;24.40;;;13.20;;
26375;SDS011;30544;42.196;24.336;2023-03-20T08:10:04;26.35;;;13.15;;
26375;SDS011;30544;42.196;24.336;2023-03-20T08:12:31;28.48;;;14.68;;
26375;SDS011;30544;42.196;24.336;2023-03-20T08:14:57;21.30;;;13.00;;
26375;SDS011;30544;42.196;24.336;2023-03-20T08:17:24;22.15;;;12.20;;
26375;SDS011;30544;42.196;24.336;2023-03-20T08:19:51;20.65;;;12.38;;
26375;SDS011;30544;42.196;24.336;2023-03-20T08:22:18;20.77;;;12.00;;
26375;SDS011;30544;42.196;24.336;2023-03-20T08:24:44;18.38;;;12.38;;
26375;SDS011;30544;42.196;24.336;2023-03-20T08:27:12;21.50;;;12.85;;
26375;SDS011;30544;42.196;24.336;2023-03-20T08:29:39;21.48;;;12.57;;
26375;SDS011;30544;42.196;24.336;2023-03-20T08:32:06;19.75;;;13.05;;
26375;SDS011;30544;42.196;24.336;2023-03-20T08:34:34;15.57;;;11.85;;
26375;SDS011;30544;42.196;24.336;2023-03-20T08:37:02;19.75;;;12.65;;
26375;SDS011;30544;42.196;24.336;2023-03-20T08:39:29;18.98;;;11.93;;
26375;SDS011;30544;42.196;24.336;2023-03-20T08:41:57;18.92;;;11.73;;
26375;SDS011;30544;42.196;24.336;2023-03-20T08:44:25;21.60;;;12.73;;
26375;SDS011;30544;42.196;24.336;2023-03-20T08:46:52;17.48;;;11.52;;
26375;SDS011;30544;42.196;24.336;2023-03-20T08:49:19;17.83;;;11.07;;
26375;SDS011;30544;42.196;24.336;2023-03-20T08:51:46;20.90;;;13.07;;
26375;SDS011;30544;42.196;24.336;2023-03-20T08:54:12;18.83;;;12.07;;
26375;SDS011;30544;42.196;24.336;2023-03-20T08:56:40;17.80;;;12.10;;
26375;SDS011;30544;42.196;24.336;2023-03-20T08:59:07;20.48;;;13.20;;
26375;SDS011;30544;42.196;24.336;2023-03-20T09:01:35;22.50;;;13.48;;
26375;SDS011;30544;42.196;24.336;2023-03-20T09:04:02;16.30;;;11.98;;
26375;SDS011;30544;42.196;24.336;2023-03-20T09:06:29;19.92;;;11.65;;
26375;SDS011;30544;42.196;24.336;2023-03-20T09:08:57;16.40;;;10.85;;
26375;SDS011;30544;42.196;24.336;2023-03-20T09:11:24;18.40;;;11.75;;
26375;SDS011;30544;42.196;24.336;2023-03-20T09:13:50;17.38;;;11.30;;
26375;SDS011;30544;42.196;24.336;2023-03-20T09:16:17;16.98;;;11.15;;
26375;SDS011;30544;42.196;24.336;2023-03-20T09:18:45;24.15;;;10.23;;
26375;SDS011;30544;42.196;24.336;2023-03-20T09:21:12;15.50;;;10.38;;
26375;SDS011;30544;42.196;24.336;2023-03-20T09:23:39;17.63;;;10.13;;
26375;SDS011;30544;42.196;24.336;2023-03-20T09:26:05;28.05;;;11.63;;
26375;SDS011;30544;42.196;24.336;2023-03-20T09:28:32;15.65;;;10.50;;
26375;SDS011;30544;42.196;24.336;2023-03-20T09:30:59;18.27;;;10.45;;
26375;SDS011;30544;42.196;24.336;2023-03-20T09:33:26;18.45;;;11.43;;
26375;SDS011;30544;42.196;24.336;2023-03-20T09:35:55;19.88;;;11.00;;
26375;SDS011;30544;42.196;24.336;2023-03-20T09:38:21;15.43;;;8.70;;
26375;SDS011;30544;42.196;24.336;2023-03-20T09:40:49;13.40;;;8.95;;
26375;SDS011;30544;42.196;24.336;2023-03-20T09:43:40;13.77;;;9.60;;
26375;SDS011;30544;42.196;24.336;2023-03-20T09:46:19;27.40;;;8.90;;
26375;SDS011;30544;42.196;24.336;2023-03-20T09:48:57;16.80;;;8.48;;
26375;SDS011;30544;42.196;24.336;2023-03-20T09:51:35;13.63;;;7.65;;
26375;SDS011;30544;42.196;24.336;2023-03-20T09:54:06;16.00;;;10.40;;
26375;SDS011;30544;42.196;24.336;2023-03-20T09:56:39;14.98;;;9.88;;
26375;SDS011;30544;42.196;24.336;2023-03-20T09:59:06;15.55;;;9.75;;
26375;SDS011;30544;42.196;24.336;2023-03-20T10:01:35;15.63;;;8.65;;
26375;SDS011;30544;42.196;24.336;2023-03-20T10:04:09;18.02;;;9.15;;
26375;SDS011;30544;42.196;24.336;2023-03-20T10:06:38;19.10;;;9.40;;
26375;SDS011;30544;42.196;24.336;2023-03-20T10:09:09;13.35;;;8.20;;
26375;SDS011;30544;42.196;24.336;2023-03-20T10:11:48;10.88;;;7.70;;
26375;SDS011;30544;42.196;24.336;2023-03-20T10:14:24;13.73;;;7.80;;
26375;SDS011;30544;42.196;24.336;2023-03-20T10:17:00;13.82;;;7.68;;
26375;SDS011;30544;42.196;24.336;2023-03-20T10:19:35;10.45;;;7.50;;
26375;SDS011;30544;42.196;24.336;2023-03-20T10:22:14;11.00;;;7.55;;
26375;SDS011;30544;42.196;24.336;2023-03-20T10:24:47;17.90;;;8.52;;
26375;SDS011;30544;42.196;24.336;2023-03-20T10:27:20;13.82;;;8.45;;
26375;SDS011;30544;42.196;24.336;2023-03-20T10:29:51;13.35;;;7.80;;
26375;SDS011;30544;42.196;24.336;2023-03-20T10:32:27;11.07;;;7.28;;
26375;SDS011;30544;42.196;24.336;2023-03-20T10:35:03;20.27;;;10.73;;
26375;SDS011;30544;42.196;24.336;2023-03-20T10:37:51;16.45;;;9.35;;
26375;SDS011;30544;42.196;24.336;2023-03-20T10:40:26;13.23;;;8.90;;
26375;SDS011;30544;42.196;24.336;2023-03-20T10:42:56;21.25;;;9.60;;
26375;SDS011;30544;42.196;24.336;2023-03-20T10:45:30;17.23;;;9.73;;
26375;SDS011;30544;42.196;24.336;2023-03-20T10:48:03;16.83;;;9.27;;
26375;SDS011;30544;42.196;24.336;2023-03-20T10:50:37;16.15;;;8.52;;
26375;SDS011;30544;42.196;24.336;2023-03-20T10:53:10;20.73;;;9.77;;
26375;SDS011;30544;42.196;24.336;2023-03-20T10:55:48;17.77;;;10.52;;
26375;SDS011;30544;42.196;24.336;2023-03-20T10:58:17;20.35;;;11.85;;
26375;SDS011;30544;42.196;24.336;2023-03-20T11:00:47;25.30;;;12.25;;
26375;SDS011;30544;42.196;24.336;2023-03-20T11:03:16;18.88;;;10.88;;
26375;SDS011;30544;42.196;24.336;2023-03-20T11:05:48;21.20;;;10.98;;
26375;SDS011;30544;42.196;24.336;2023-03-20T11:08:22;19.40;;;11.15;;
26375;SDS011;30544;42.196;24.336;2023-03-20T11:10:57;23.15;;;10.77;;
26375;SDS011;30544;42.196;24.336;2023-03-20T11:13:26;18.77;;;10.75;;
26375;SDS011;30544;42.196;24.336;2023-03-20T11:15:57;21.17;;;12.32;;
26375;SDS011;30544;42.196;24.336;2023-03-20T11:18:34;18.45;;;11.57;;
26375;SDS011;30544;42.196;24.336;2023-03-20T11:21:02;21.92;;;10.98;;
26375;SDS011;30544;42.196;24.336;2023-03-20T11:23:32;19.17;;;11.93;;
26375;SDS011;30544;42.196;24.336;2023-03-20T11:26:00;18.67;;;10.25;;
26375;SDS011;30544;42.196;24.336;2023-03-20T11:28:31;14.88;;;9.05;;
26375;SDS011;30544;42.196;24.336;2023-03-20T11:31:00;19.17;;;9.27;;
26375;SDS011;30544;42.196;24.336;2023-03-20T11:33:30;12.50;;;8.13;;
26375;SDS011;30544;42.196;24.336;2023-03-20T11:35:59;16.85;;;9.82;;
26375;SDS011;30544;42.196;24.336;2023-03-20T11:38:26;15.27;;;9.10;;
26375;SDS011;30544;42.196;24.336;2023-03-20T11:40:58;18.98;;;10.50;;
26375;SDS011;30544;42.196;24.336;2023-03-20T11:43:29;17.30;;;8.93;;
26375;SDS011;30544;42.196;24.336;2023-03-20T11:46:03;16.58;;;8.02;;
26375;SDS011;30544;42.196;24.336;2023-03-20T11:48:37;15.40;;;8.60;;
26375;SDS011;30544;42.196;24.336;2023-03-20T11:51:05;14.25;;;8.43;;
26375;SDS011;30544;42.196;24.336;2023-03-20T11:53:35;14.43;;;7.68;;
26375;SDS011;30544;42.196;24.336;2023-03-20T11:56:08;16.23;;;8.75;;
26375;SDS011;30544;42.196;24.336;2023-03-20T11:58:37;14.77;;;8.68;;
26375;SDS011;30544;42.196;24.336;2023-03-20T12:01:16;16.83;;;8.88;;
26375;SDS011;30544;42.196;24.336;2023-03-20T12:03:44;15.65;;;9.00;;
26375;SDS011;30544;42.196;24.336;2023-03-20T12:06:20;19.75;;;9.70;;
26375;SDS011;30544;42.196;24.336;2023-03-20T12:08:52;14.93;;;8.55;;
26375;SDS011;30544;42.196;24.336;2023-03-20T12:11:41;15.10;;;7.95;;
26375;SDS011;30544;42.196;24.336;2023-03-20T12:14:15;13.95;;;7.75;;
26375;SDS011;30544;42.196;24.336;2023-03-20T12:16:47;14.05;;;8.88;;
26375;SDS011;30544;42.196;24.336;2023-03-20T12:19:18;15.88;;;9.55;;
26375;SDS011;30544;42.196;24.336;2023-03-20T12:21:50;12.90;;;8.13;;
26375;SDS011;30544;42.196;24.336;2023-03-20T12:24:25;17.02;;;8.40;;
26375;SDS011;30544;42.196;24.336;2023-03-20T12:27:04;21.77;;;9.38;;
26375;SDS011;30544;42.196;24.336;2023-03-20T12:29:42;21.30;;;8.63;;
26375;SDS011;30544;42.196;24.336;2023-03-20T12:32:14;14.95;;;7.88;;
26375;SDS011;30544;42.196;24.336;2023-03-20T12:34:46;18.55;;;9.15;;
26375;SDS011;30544;42.196;24.336;2023-03-20T12:37:17;19.90;;;8.27;;
26375;SDS011;30544;42.196;24.336;2023-03-20T12:39:46;19.20;;;8.48;;
26375;SDS011;30544;42.196;24.336;2023-03-20T12:42:18;17.92;;;8.50;;
26375;SDS011;30544;42.196;24.336;2023-03-20T12:44:55;18.83;;;9.18;;
26375;SDS011;30544;42.196;24.336;2023-03-20T12:47:29;18.45;;;8.93;;
26375;SDS011;30544;42.196;24.336;2023-03-20T12:50:09;20.38;;;9.05;;
26375;SDS011;30544;42.196;24.336;2023-03-20T12:52:50;21.88;;;8.57;;
26375;SDS011;30544;42.196;24.336;2023-03-20T12:55:29;16.88;;;8.52;;
26375;SDS011;30544;42.196;24.336;2023-03-20T12:58:20;18.80;;;8.20;;
26375;SDS011;30544;42.196;24.336;2023-03-20T13:00:53;17.25;;;8.35;;
26375;SDS011;30544;42.196;24.336;2023-03-20T13:03:32;19.05;;;9.43;;
26375;SDS011;30544;42.196;24.336;2023-03-20T13:06:12;17.75;;;9.63;;
26375;SDS011;30544;42.196;24.336;2023-03-20T13:08:50;20.95;;;9.60;;
26375;SDS011;30544;42.196;24.336;2023-03-20T13:11:28;20.65;;;8.73;;
26375;SDS011;30544;42.196;24.336;2023-03-20T13:14:03;18.30;;;8.23;;
26375;SDS011;30544;42.196;24.336;2023-03-20T13:16:41;22.35;;;8.63;;
26375;SDS011;30544;42.196;24.336;2023-03-20T13:19:15;17.38;;;9.43;;
26375;SDS011;30544;42.196;24.336;2023-03-20T13:21:52;16.05;;;8.45;;
26375;SDS011;30544;42.196;24.336;2023-03-20T13:24:32;19.25;;;8.85;;
26375;SDS011;30544;42.196;24.336;2023-03-20T13:27:12;19.50;;;9.15;;
26375;SDS011;30544;42.196;24.336;2023-03-20T13:29:51;15.75;;;8.73;;
26375;SDS011;30544;42.196;24.336;2023-03-20T13:32:26;21.92;;;9.75;;
26375;SDS011;30544;42.196;24.336;2023-03-20T13:35:07;14.18;;;8.35;;
26375;SDS011;30544;42.196;24.336;2023-03-20T13:37:47;19.33;;;9.02;;
26375;SDS011;30544;42.196;24.336;2023-03-20T13:40:17;22.17;;;8.60;;
26375;SDS011;30544;42.196;24.336;2023-03-20T13:42:49;21.85;;;10.85;;
26375;SDS011;30544;42.196;24.336;2023-03-20T13:45:24;17.27;;;9.30;;
26375;SDS011;30544;42.196;24.336;2023-03-20T13:47:56;18.30;;;7.72;;
26375;SDS011;30544;42.196;24.336;2023-03-20T13:50:31;18.70;;;7.32;;
26375;SDS011;30544;42.196;24.336;2023-03-20T13:53:05;21.02;;;8.10;;
26375;SDS011;30544;42.196;24.336;2023-03-20T13:55:43;20.80;;;9.90;;
26375;SDS011;30544;42.196;24.336;2023-03-20T13:58:20;18.48;;;9.02;;
26375;SDS011;30544;42.196;24.336;2023-03-20T14:01:03;20.75;;;9.82;;
26375;SDS011;30544;42.196;24.336;2023-03-20T14:03:35;18.25;;;10.18;;
26375;SDS011;30544;42.196;24.336;2023-03-20T14:06:15;15.70;;;8.90;;
26375;SDS011;30544;42.196;24.336;2023-03-20T14:08:46;21.20;;;9.90;;
26375;SDS011;30544;42.196;24.336;2023-03-20T14:11:24;14.13;;;8.35;;
26375;SDS011;30544;42.196;24.336;2023-03-20T14:13:58;20.17;;;9.48;;
26375;SDS011;30544;42.196;24.336;2023-03-20T14:16:30;20.40;;;10.25;;
26375;SDS011;30544;42.196;24.336;2023-03-20T14:19:04;15.68;;;8.48;;
26375;SDS011;30544;42.196;24.336;2023-03-20T14:21:33;14.48;;;7.22;;
26375;SDS011;30544;42.196;24.336;2023-03-20T14:24:01;13.25;;;7.32;;
26375;SDS011;30544;42.196;24.336;2023-03-20T14:26:33;16.77;;;6.95;;
26375;SDS011;30544;42.196;24.336;2023-03-20T14:32:04;15.65;;;6.20;;
26375;SDS011;30544;42.196;24.336;2023-03-20T14:34:48;11.38;;;5.78;;
26375;SDS011;30544;42.196;24.336;2023-03-20T14:37:29;15.88;;;7.65;;
26375;SDS011;30544;42.196;24.336;2023-03-20T14:40:10;10.60;;;6.78;;
26375;SDS011;30544;42.196;24.336;2023-03-20T14:42:50;12.48;;;6.40;;